This is the latest recevied weather packets stored in our database for station/object OH1KK. If no packets are shown the sender has not sent any weather packets the latest 10 day(s).
| Time | Temp. | Humidity | Pressure | Rain* | Wind** | Luminosity | Snow |
|---|---|---|---|---|---|---|---|
| 1777502077 | 2.22° C | 88% | 1012.1 hPa | 0 mm | - | - | - |
| 1777501163 | 2.22° C | 88% | 1012.3 hPa | 0 mm | - | - | - |
| 1777500246 | 2.22° C | 87% | 1012.5 hPa | 0 mm | - | - | - |
| 1777497562 | 1.67° C | 85% | 1012.5 hPa | 0 mm | - | - | - |
| 1777496647 | 1.67° C | 84% | 1012.2 hPa | 0 mm | - | - | - |
| 1777491279 | 2.78° C | 74% | 1013.2 hPa | 0 mm | - | - | - |
| 1777490365 | 2.22° C | 72% | 1013.5 hPa | 0 mm | - | - | - |
| 1777480483 | 5.56° C | 47% | 1013.5 hPa | 0 mm | - | - | - |
| 1777479568 | 6.11° C | 45% | 1014 hPa | 0 mm | - | - | - |
| 1777471455 | 7.22° C | 37% | 1014.9 hPa | 0 mm | - | - | - |
| 1777468771 | 7.22° C | 37% | 1015.1 hPa | 0 mm | - | - | - |
| 1777464256 | 6.67° C | 37% | 1015.7 hPa | 0 mm | - | - | - |
| 1777462488 | 6.67° C | 38% | 1015.8 hPa | 0 mm | - | - | - |
| 1777461574 | 6.67° C | 39% | 1016 hPa | 0 mm | - | - | - |
| 1777460658 | 6.11° C | 42% | 1016.3 hPa | 0 mm | - | - | - |
| 1777458889 | 6.11° C | 41% | 1016.5 hPa | 0 mm | - | - | - |
| 1777457974 | 6.11° C | 39% | 1016.8 hPa | 0 mm | - | - | - |
| 1777457059 | 6.11° C | 40% | 1016.8 hPa | 0 mm | - | - | - |
| 1777455289 | 5.56° C | 41% | 1016.8 hPa | 0 mm | - | - | - |
| 1777454374 | 5.56° C | 42% | 1017 hPa | 0 mm | - | - | - |
| 1777453459 | 5.56° C | 43% | 1017.2 hPa | 0 mm | - | - | - |
| 1777452544 | 5° C | 42% | 1017.3 hPa | 0 mm | - | - | - |
| 1777449860 | 5° C | 44% | 1017.4 hPa | 0 mm | - | - | - |
| 1777448945 | 4.44° C | 45% | 1017.4 hPa | 0 mm | - | - | - |
| 1777448091 | 3.89° C | 46% | 1017.6 hPa | 0 mm | - | - | - |
* Rain latest hour (hover to see other rain measurements)
** Current wind speed in m/s (hover to see current wind gust speed)